Hauptseite
METAR-TAF:

METAR-TAF

Flughäfen :

MoD Boscombe Down

Boscombe Down, England

Breite: 51-10N, Länge: 001-45W, Höhe: 124 m

Beobachtung

Neuester Wetterbericht von vor 1 Stunde und 8 Minuten, um 06:50 UTC
Wind 4 kt aus Nord
Temperatur 9°C
Luftfeuchtigkeit 81%
Luftdruck 1024 hPa
Sichtweite: 4500 m
Leicht bewölkt in der Höhe von 24000 ft
trockener Dunst

METAR: EGDM 090650Z 36004KT 4500 HZ FEW240 09/06 Q1024 RMK GRN

Zeit: 08:58 (07:58 UTC)

Prognose

Neuester Wetterbericht von vor 21 Stunden und 18 Minuten, um 10:40 UTC
Gültige Prognose vom 08 um 12 UTC bis 08 um 16 UTC
Wind 7 kt aus Ost
Sichtweite 10 km oder mehr
Aufgelockert bewölkt in der Höhe von 4000 ft

TAF: EGDM 081040Z 0812/0816 08007KT 9999 SCT040

Wetterbeobachtungen und Prognosen von mehr als 4000 Flughäfen (METAR und TAF Bericht).

Die verfügbaren Stationen werden durch gelbe und rote Markierungen auf der Karte dargestellt.

Führen Sie die Maus auf sie, um den Namen der Station zu sehen.

Darauf klicken, um die Beobachtung von Wetterbeobachtungen und Prognosen zu sehen.

Um die Karte zu ändern : klicken Sie auf den grünen Tasten mit einem schwarzen Kreuz Zum Vergrößern, auf den grünen Button mit einem Gedankenstrich zu verkleinern, oder auf die grünen Pfeile für benachbarte Karten.


METAR-TAF: